createdAt,value
2022-08-07T00:00:46.158Z,65.85
2022-08-07T00:02:36.360Z,65.75
2022-08-07T00:02:47.137Z,65.95
2022-08-07T00:03:47.053Z,65.78
2022-08-07T00:04:46.171Z,66.08
2022-08-07T00:05:46.384Z,66.29
2022-08-07T00:06:51.539Z,66.60
2022-08-07T00:07:47.053Z,66.86
2022-08-07T00:08:46.030Z,65.95
2022-08-07T00:09:59.191Z,65.95
2022-08-07T00:10:48.024Z,66.16
2022-08-07T00:11:54.213Z,65.95
2022-08-07T00:12:57.919Z,65.55
2022-08-07T00:13:46.969Z,65.14
2022-08-07T00:14:45.980Z,65.04
2022-08-07T00:15:46.838Z,64.97
2022-08-07T00:16:46.934Z,64.87
2022-08-07T00:17:45.920Z,65.07
2022-08-07T00:18:45.910Z,65.27
2022-08-07T00:20:01.578Z,65.48
2022-08-07T00:20:46.900Z,65.68
2022-08-07T00:21:56.656Z,65.78
2022-08-07T00:22:51.706Z,65.58
2022-08-07T00:23:46.840Z,65.58
2022-08-07T00:24:45.821Z,65.68
2022-08-07T00:25:52.548Z,65.88
2022-08-07T00:26:49.233Z,65.88
2022-08-07T00:27:53.112Z,65.99
2022-08-07T00:28:55.689Z,66.39
2022-08-07T00:29:46.742Z,66.08
2022-08-07T00:30:45.760Z,66.08
2022-08-07T00:31:45.722Z,66.08
2022-08-07T00:32:46.704Z,65.68
2022-08-07T00:33:47.576Z,65.68
2022-08-07T00:34:45.683Z,65.61
2022-08-07T00:35:49.681Z,65.91
2022-08-07T00:36:45.666Z,65.71
2022-08-07T00:37:48.417Z,65.71
2022-08-07T00:38:45.630Z,65.91
2022-08-07T00:39:45.655Z,66.02
2022-08-07T00:40:46.622Z,66.46
2022-08-07T00:41:53.931Z,66.55
2022-08-07T00:42:46.563Z,66.25
2022-08-07T00:44:00.229Z,66.55
2022-08-07T00:44:46.544Z,66.66
2022-08-07T00:45:46.485Z,66.76
2022-08-07T00:46:45.512Z,66.76
2022-08-07T00:48:09.681Z,66.96
2022-08-07T00:48:49.852Z,67.06
2022-08-07T00:50:19.692Z,66.76
2022-08-07T00:50:51.497Z,67.06
2022-08-07T00:51:57.038Z,67.06
2022-08-07T00:52:47.524Z,67.27
2022-08-07T00:53:50.888Z,67.16
2022-08-07T00:54:46.403Z,67.47
2022-08-07T00:56:00.634Z,66.96
2022-08-07T00:56:46.384Z,67.06
2022-08-07T00:57:55.337Z,67.27
2022-08-07T00:58:47.030Z,67.30
2022-08-07T00:59:45.352Z,67.30
2022-08-07T01:00:53.923Z,66.99
2022-08-07T01:01:46.321Z,67.10
2022-08-07T01:02:45.315Z,66.99
2022-08-07T01:03:56.860Z,66.89
2022-08-07T01:04:46.273Z,67.40
2022-08-07T01:05:53.569Z,67.60
2022-08-07T01:06:46.264Z,67.60
2022-08-07T01:07:45.251Z,67.19
2022-08-07T01:08:53.461Z,67.40
2022-08-07T01:10:06.764Z,67.53
2022-08-07T01:10:54.283Z,67.74
2022-08-07T01:12:27.671Z,67.43
2022-08-07T01:12:53.910Z,67.63
2022-08-07T01:13:55.654Z,68.24
2022-08-07T01:14:46.138Z,68.44
2022-08-07T01:16:05.747Z,68.04
2022-08-07T01:16:47.119Z,67.94
2022-08-07T01:17:45.095Z,68.14
2022-08-07T01:18:45.092Z,68.24
2022-08-07T01:19:45.078Z,68.14
2022-08-07T01:20:57.269Z,68.14
2022-08-07T01:21:46.065Z,68.04
2022-08-07T01:22:54.168Z,68.04
2022-08-07T01:23:46.695Z,68.55
2022-08-07T01:24:45.006Z,68.79
2022-08-07T01:25:55.337Z,68.99
2022-08-07T01:27:19.816Z,69.19
2022-08-07T01:27:50.905Z,69.60
2022-08-07T01:28:48.301Z,69.73
2022-08-07T01:29:44.939Z,69.84
2022-08-07T01:30:44.962Z,70.14
2022-08-07T01:31:48.629Z,69.90
2022-08-07T01:32:44.898Z,69.90
2022-08-07T01:33:55.675Z,69.80
2022-08-07T01:34:47.184Z,69.60
2022-08-07T01:35:53.686Z,69.60
2022-08-07T01:36:52.924Z,69.60
2022-08-07T01:37:45.831Z,69.70
2022-08-07T01:38:44.815Z,69.70
2022-08-07T01:39:46.709Z,69.93
2022-08-07T01:40:44.816Z,69.93
2022-08-07T01:42:01.449Z,70.14
2022-08-07T01:42:58.669Z,70.34
2022-08-07T01:43:45.749Z,70.45
2022-08-07T01:44:44.769Z,70.55
2022-08-07T01:45:46.616Z,70.86
2022-08-07T01:46:44.733Z,71.06
2022-08-07T01:48:17.676Z,70.86
2022-08-07T01:48:46.696Z,71.06
2022-08-07T01:49:44.669Z,70.86
2022-08-07T01:50:44.682Z,70.45
2022-08-07T01:52:03.342Z,70.14
2022-08-07T01:52:49.651Z,70.55
2022-08-07T01:54:09.103Z,70.65
2022-08-07T01:54:45.599Z,70.65
2022-08-07T01:55:44.577Z,70.75
2022-08-07T01:56:49.455Z,70.45
2022-08-07T01:58:01.371Z,70.24
2022-08-07T01:58:45.570Z,70.04
2022-08-07T01:59:45.144Z,69.93
2022-08-07T02:00:45.417Z,70.14
2022-08-07T02:02:02.297Z,70.14
2022-08-07T02:03:18.102Z,70.55
2022-08-07T02:03:50.507Z,70.75
2022-08-07T02:04:55.662Z,70.55
2022-08-07T02:05:58.541Z,70.65
2022-08-07T02:06:45.878Z,70.86
2022-08-07T02:07:50.411Z,70.95
2022-08-07T02:08:45.411Z,70.65
2022-08-07T02:09:54.771Z,70.55
2022-08-07T02:10:53.421Z,70.95
2022-08-07T02:12:03.590Z,70.86
2022-08-07T02:12:46.428Z,70.95
2022-08-07T02:13:56.776Z,70.95
2022-08-07T02:14:45.353Z,71.16
2022-08-07T02:15:44.312Z,70.95
2022-08-07T02:16:44.335Z,70.86
2022-08-07T02:17:49.348Z,70.58
2022-08-07T02:18:47.186Z,70.45
2022-08-07T02:20:04.403Z,70.14
2022-08-07T02:20:48.579Z,70.07
2022-08-07T02:21:56.347Z,69.76
2022-08-07T02:22:45.251Z,69.76
2022-08-07T02:23:44.745Z,70.07
2022-08-07T02:24:44.679Z,70.07
2022-08-07T02:26:31.044Z,69.97
2022-08-07T02:26:45.173Z,69.97
2022-08-07T02:27:44.141Z,69.87
2022-08-07T02:28:45.139Z,69.87
2022-08-07T02:29:48.660Z,70.07
2022-08-07T02:30:45.110Z,70.82
2022-08-07T02:31:44.113Z,70.61
2022-08-07T02:33:08.985Z,70.72
2022-08-07T02:34:03.462Z,70.82
2022-08-07T02:34:48.982Z,71.02
2022-08-07T02:36:30.097Z,71.02
2022-08-07T02:36:45.243Z,71.02
2022-08-07T02:37:44.404Z,71.36
2022-08-07T02:38:51.042Z,71.56
2022-08-07T02:40:02.561Z,71.77
2022-08-07T02:40:46.539Z,71.77
2022-08-07T02:41:50.678Z,71.36
2022-08-07T02:42:44.943Z,71.56
2022-08-07T02:43:43.934Z,71.87
2022-08-07T02:44:48.165Z,71.87
2022-08-07T02:46:00.796Z,71.97
2022-08-07T02:46:46.694Z,71.97
2022-08-07T02:47:49.114Z,71.77
2022-08-07T02:48:54.862Z,72.08
2022-08-07T02:49:59.028Z,72.08
2022-08-07T02:50:44.914Z,71.94
2022-08-07T02:51:49.768Z,71.84
2022-08-07T02:52:47.803Z,71.63
2022-08-07T02:53:43.824Z,71.43
2022-08-07T02:54:43.783Z,71.02
2022-08-07T02:56:03.536Z,71.02
2022-08-07T02:56:44.795Z,71.02
2022-08-07T02:57:43.753Z,70.92
2022-08-07T02:58:46.972Z,70.92
2022-08-07T02:59:43.744Z,71.12
2022-08-07T03:00:47.430Z,71.06
2022-08-07T03:01:47.219Z,71.26
2022-08-07T03:02:55.110Z,71.46
2022-08-07T03:03:50.546Z,71.80
2022-08-07T03:04:44.652Z,71.91
2022-08-07T03:05:43.666Z,72.11
2022-08-07T03:06:44.809Z,72.00
2022-08-07T03:08:07.960Z,72.31
2022-08-07T03:08:44.594Z,72.31
2022-08-07T03:09:46.369Z,72.21
2022-08-07T03:10:46.476Z,72.52
2022-08-07T03:11:52.228Z,72.72
2022-08-07T03:12:44.566Z,72.65
2022-08-07T03:13:49.671Z,72.72
2022-08-07T03:14:48.410Z,72.62
2022-08-07T03:15:55.813Z,72.41
2022-08-07T03:16:44.525Z,72.31
2022-08-07T03:17:52.939Z,72.31
2022-08-07T03:18:44.474Z,72.34
2022-08-07T03:19:43.447Z,72.55
2022-08-07T03:20:44.436Z,72.45
2022-08-07T03:21:50.633Z,72.45
2022-08-07T03:22:44.437Z,72.69
2022-08-07T03:24:17.909Z,73.19
2022-08-07T03:24:44.396Z,73.40
2022-08-07T03:25:43.366Z,73.40
2022-08-07T03:26:51.269Z,73.30
2022-08-07T03:27:59.075Z,73.81
2022-08-07T03:28:44.683Z,74.05
2022-08-07T03:29:46.264Z,74.15
2022-08-07T03:30:44.315Z,74.05
2022-08-07T03:31:46.120Z,74.11
2022-08-07T03:32:48.965Z,73.71
2022-08-07T03:33:44.255Z,73.71
2022-08-07T03:34:47.569Z,73.94
2022-08-07T03:35:44.304Z,74.05
2022-08-07T03:36:44.237Z,74.25
2022-08-07T03:37:54.130Z,74.35
2022-08-07T03:38:44.197Z,74.35
2022-08-07T03:39:59.373Z,74.25
2022-08-07T03:40:44.659Z,74.05
2022-08-07T03:41:47.717Z,73.81
2022-08-07T03:42:44.158Z,74.25
2022-08-07T03:43:44.062Z,74.35
2022-08-07T03:44:53.263Z,74.15
2022-08-07T03:45:47.504Z,74.11
2022-08-07T03:47:10.542Z,73.94
2022-08-07T03:47:48.038Z,73.84
2022-08-07T03:48:45.491Z,73.54
2022-08-07T03:49:48.062Z,73.84
2022-08-07T03:50:56.281Z,73.94
2022-08-07T03:51:47.329Z,73.74
2022-08-07T03:52:43.029Z,73.64
2022-08-07T03:54:05.686Z,74.05
2022-08-07T03:54:54.245Z,74.35
2022-08-07T03:55:57.342Z,74.76
2022-08-07T03:57:03.700Z,75.00
2022-08-07T03:58:34.144Z,75.10
2022-08-07T03:59:08.456Z,75.21
2022-08-07T03:59:46.893Z,75.21
2022-08-07T04:00:46.312Z,75.10
2022-08-07T04:01:43.093Z,75.07
2022-08-07T04:02:42.888Z,74.76
2022-08-07T04:03:53.304Z,74.66
2022-08-07T04:04:45.124Z,74.56
2022-08-07T04:05:45.622Z,74.35
2022-08-07T04:06:42.828Z,74.46
2022-08-07T04:07:45.337Z,74.97
2022-08-07T04:08:42.870Z,74.66
2022-08-07T04:09:45.193Z,74.87
2022-08-07T04:10:54.865Z,74.66
2022-08-07T04:12:23.897Z,75.21
2022-08-07T04:12:43.809Z,75.48
2022-08-07T04:14:10.477Z,75.58
2022-08-07T04:14:46.324Z,75.37
2022-08-07T04:15:42.697Z,75.82
2022-08-07T04:16:43.097Z,76.23
2022-08-07T04:18:30.769Z,76.03
2022-08-07T04:18:59.380Z,75.78
2022-08-07T04:19:52.211Z,75.68
2022-08-07T04:20:54.775Z,75.78
2022-08-07T04:21:47.921Z,75.48
2022-08-07T04:22:53.440Z,75.17
2022-08-07T04:24:06.044Z,74.97
2022-08-07T04:24:43.579Z,74.97
2022-08-07T04:25:42.607Z,74.76
2022-08-07T04:26:43.661Z,75.07
2022-08-07T04:27:44.118Z,75.27
2022-08-07T04:28:42.529Z,75.27
2022-08-07T04:29:58.267Z,75.17
2022-08-07T04:30:57.052Z,75.07
2022-08-07T04:32:03.068Z,75.13
2022-08-07T04:32:44.629Z,75.13
2022-08-07T04:33:42.461Z,75.34
2022-08-07T04:34:42.490Z,75.34
2022-08-07T04:35:42.476Z,75.34
2022-08-07T04:36:42.420Z,75.44
2022-08-07T04:38:03.981Z,75.44
2022-08-07T04:38:43.404Z,75.13
2022-08-07T04:39:47.873Z,75.04
2022-08-07T04:40:52.203Z,75.13
2022-08-07T04:41:43.373Z,74.93
2022-08-07T04:42:43.680Z,75.13
2022-08-07T04:44:10.082Z,75.04
2022-08-07T04:44:54.598Z,75.13
2022-08-07T04:45:52.096Z,75.04
2022-08-07T04:46:59.399Z,74.93
2022-08-07T04:48:01.358Z,74.93
2022-08-07T04:48:44.513Z,75.04
2022-08-07T04:49:42.253Z,74.93
2022-08-07T04:50:43.229Z,74.83
2022-08-07T04:51:43.221Z,74.83
2022-08-07T04:52:51.237Z,74.90
2022-08-07T04:54:05.515Z,74.69
2022-08-07T04:54:43.180Z,74.38
2022-08-07T04:58:11.333Z,73.84
2022-08-07T04:58:16.618Z,74.29
2022-08-07T04:58:16.887Z,73.64
2022-08-07T05:00:10.982Z,73.33
2022-08-07T05:00:43.151Z,73.54
2022-08-07T05:01:42.090Z,73.54
2022-08-07T05:02:43.408Z,73.64
2022-08-07T05:04:06.994Z,73.84
2022-08-07T05:04:47.257Z,73.84
2022-08-07T05:05:54.021Z,73.84
2022-08-07T05:06:51.157Z,73.94
2022-08-07T05:07:48.152Z,74.05
2022-08-07T05:08:59.424Z,73.84
2022-08-07T05:09:46.639Z,73.60
2022-08-07T05:10:41.968Z,73.60
2022-08-07T05:11:58.871Z,73.40
2022-08-07T05:12:46.228Z,73.19
2022-08-07T05:14:52.590Z,73.19
2022-08-07T05:14:56.259Z,73.19
2022-08-07T05:15:42.919Z,73.19
2022-08-07T05:16:44.111Z,73.30
2022-08-07T05:17:52.840Z,72.96
2022-08-07T05:18:42.861Z,72.86
2022-08-07T05:19:44.729Z,72.75
2022-08-07T05:20:42.779Z,72.55
2022-08-07T05:22:00.034Z,72.65
2022-08-07T05:22:42.841Z,72.65
2022-08-07T05:23:41.790Z,72.55
2022-08-07T05:24:41.785Z,72.41
2022-08-07T05:26:13.492Z,72.41
2022-08-07T05:26:42.740Z,72.31
2022-08-07T05:28:03.068Z,72.11
2022-08-07T05:28:48.758Z,72.21
2022-08-07T05:29:50.969Z,72.41
2022-08-07T05:30:42.692Z,72.72
2022-08-07T05:31:41.681Z,72.92
2022-08-07T05:32:42.673Z,73.13
2022-08-07T05:33:41.659Z,72.82
2022-08-07T05:34:42.631Z,72.82
2022-08-07T05:35:42.439Z,72.69
2022-08-07T05:36:41.610Z,72.58
2022-08-07T05:37:42.336Z,72.48
2022-08-07T05:38:59.608Z,72.58
2022-08-07T05:40:13.877Z,72.69
2022-08-07T05:40:51.318Z,72.69
2022-08-07T05:42:02.657Z,72.69
2022-08-07T05:42:42.528Z,72.75
2022-08-07T05:43:49.840Z,72.75
2022-08-07T05:44:52.929Z,73.06
2022-08-07T05:45:47.590Z,72.96
2022-08-07T05:46:42.951Z,72.96
2022-08-07T05:48:01.609Z,72.86
2022-08-07T05:48:59.591Z,72.86
2022-08-07T05:49:42.451Z,72.96
2022-08-07T05:50:42.908Z,72.86
2022-08-07T05:51:42.190Z,73.06
2022-08-07T05:52:41.414Z,73.16
2022-08-07T05:54:13.826Z,73.16
2022-08-07T05:54:53.210Z,73.02
2022-08-07T05:56:03.619Z,73.02
2022-08-07T05:56:42.334Z,73.33
2022-08-07T05:57:42.060Z,73.23
2022-08-07T05:58:41.326Z,73.33
2022-08-07T05:59:57.656Z,73.43
2022-08-07T06:00:42.275Z,73.43
2022-08-07T06:01:42.359Z,73.63
2022-08-07T06:02:41.733Z,72.72
2022-08-07T06:03:53.984Z,72.31
2022-08-07T06:04:42.225Z,72.62
2022-08-07T06:05:41.223Z,72.78
2022-08-07T06:06:45.871Z,73.19
2022-08-07T06:08:12.942Z,73.19
2022-08-07T06:08:44.262Z,72.89
2022-08-07T06:10:04.457Z,72.28
2022-08-07T06:10:42.584Z,72.08
2022-08-07T06:11:41.204Z,72.28
2022-08-07T06:12:41.159Z,72.28
2022-08-07T06:14:12.182Z,72.17
2022-08-07T06:14:42.095Z,72.34
2022-08-07T06:15:42.934Z,71.64
2022-08-07T06:16:41.065Z,71.73
2022-08-07T06:17:41.320Z,71.94
2022-08-07T06:18:42.996Z,72.14
2022-08-07T06:19:51.797Z,72.04
2022-08-07T06:20:49.801Z,71.94
2022-08-07T06:22:16.918Z,71.94
2022-08-07T06:22:41.985Z,71.64
2022-08-07T06:24:37.178Z,71.60
2022-08-07T06:24:53.016Z,71.50
2022-08-07T06:25:41.964Z,71.50
2022-08-07T06:26:41.926Z,71.40
2022-08-07T06:28:00.434Z,71.20
2022-08-07T06:28:41.894Z,71.50
2022-08-07T06:29:40.905Z,70.35
2022-08-07T06:30:45.353Z,69.84
2022-08-07T06:31:50.071Z,69.64
2022-08-07T06:32:41.845Z,68.83
2022-08-07T06:33:40.825Z,69.23
2022-08-07T06:34:40.835Z,69.34
2022-08-07T06:35:47.715Z,68.49
2022-08-07T06:36:41.850Z,68.59
2022-08-07T06:37:43.513Z,68.29
2022-08-07T06:38:58.751Z,68.08
2022-08-07T06:40:16.345Z,67.27
2022-08-07T06:40:46.090Z,66.33
2022-08-07T06:41:59.226Z,66.43
2022-08-07T06:42:41.755Z,66.94
2022-08-07T06:43:46.384Z,66.43
2022-08-07T06:44:41.709Z,66.63
2022-08-07T06:45:40.690Z,66.50
2022-08-07T06:46:40.680Z,65.08
2022-08-07T06:47:57.222Z,64.98
2022-08-07T06:48:42.131Z,64.67
2022-08-07T06:49:52.044Z,64.88
2022-08-07T06:50:43.231Z,65.28
2022-08-07T06:51:49.397Z,65.79
2022-08-07T06:52:41.596Z,65.89
2022-08-07T06:55:30.084Z,66.16
2022-08-07T06:55:31.951Z,65.36
2022-08-07T06:55:53.870Z,66.27
2022-08-07T06:56:48.450Z,66.16
2022-08-07T06:57:47.764Z,65.36
2022-08-07T06:58:41.513Z,65.05
2022-08-07T07:00:11.647Z,65.12
2022-08-07T07:00:42.282Z,64.82
2022-08-07T07:01:43.813Z,64.11
2022-08-07T07:02:54.553Z,63.30
2022-08-07T07:03:48.610Z,64.11
2022-08-07T07:04:43.536Z,64.31
2022-08-07T07:06:02.385Z,63.87
2022-08-07T07:07:00.264Z,64.07
2022-08-07T07:07:59.840Z,63.78
2022-08-07T07:08:46.703Z,63.57
2022-08-07T07:09:41.378Z,63.27
2022-08-07T07:10:47.536Z,62.76
2022-08-07T07:12:08.748Z,62.23
2022-08-07T07:12:41.679Z,61.41
2022-08-07T07:13:57.506Z,61.21
2022-08-07T07:14:41.309Z,61.32
2022-08-07T07:15:40.348Z,61.21
2022-08-07T07:16:50.850Z,61.52
2022-08-07T07:17:45.469Z,61.92
2022-08-07T07:18:48.010Z,61.92
2022-08-07T07:19:56.157Z,61.72
2022-08-07T07:20:41.216Z,64.02
2022-08-07T07:22:11.799Z,63.81
2022-08-07T07:23:06.033Z,63.78
2022-08-07T07:24:06.065Z,63.45
2022-08-07T07:24:43.229Z,63.02
2022-08-07T07:26:32.444Z,61.98
2022-08-07T07:26:41.111Z,60.03
2022-08-07T07:27:55.829Z,58.59
2022-08-07T07:28:48.514Z,57.58
2022-08-07T07:30:09.378Z,59.40
2022-08-07T07:30:41.151Z,59.40
2022-08-07T07:31:44.571Z,59.30
2022-08-07T07:32:41.049Z,59.37
2022-08-07T07:33:40.047Z,59.17
2022-08-07T07:34:40.043Z,58.54
2022-08-07T07:35:54.137Z,58.64
2022-08-07T07:36:40.993Z,58.41
2022-08-07T07:37:49.414Z,58.01
2022-08-07T07:38:40.992Z,57.70
2022-08-07T07:39:51.965Z,57.48
2022-08-07T07:40:40.941Z,57.48
2022-08-07T07:42:02.002Z,57.17
2022-08-07T07:42:40.920Z,57.15
2022-08-07T07:43:48.146Z,56.95
2022-08-07T07:44:40.898Z,57.04
2022-08-07T07:46:36.913Z,56.95
2022-08-07T07:46:55.339Z,56.62
2022-08-07T07:47:51.821Z,56.51
2022-08-07T07:48:40.830Z,56.51
2022-08-07T07:50:34.580Z,56.62
2022-08-07T07:50:41.019Z,56.21
2022-08-07T07:51:58.327Z,55.00
2022-08-07T07:52:40.769Z,54.30
2022-08-07T07:53:51.889Z,55.13
2022-08-07T07:54:50.424Z,56.34
2022-08-07T07:55:45.619Z,56.64
2022-08-07T07:56:40.730Z,56.44
2022-08-07T07:57:53.412Z,56.11
2022-08-07T07:58:41.106Z,55.81
2022-08-07T07:59:52.799Z,55.91
2022-08-07T08:00:40.674Z,54.40
2022-08-07T08:02:04.032Z,55.61
2022-08-07T08:03:01.266Z,56.11
2022-08-07T08:04:09.411Z,55.38
2022-08-07T08:04:40.684Z,55.28
2022-08-07T08:05:42.922Z,54.78
2022-08-07T08:06:40.594Z,54.08
2022-08-07T08:07:51.381Z,54.45
2022-08-07T08:08:41.968Z,54.15
2022-08-07T08:09:52.113Z,54.05
2022-08-07T08:10:40.543Z,53.14
2022-08-07T08:11:59.850Z,52.24
2022-08-07T08:12:52.712Z,52.64
2022-08-07T08:13:53.061Z,52.64
2022-08-07T08:14:40.495Z,50.53
2022-08-07T08:15:57.741Z,50.63
2022-08-07T08:16:40.473Z,51.74
2022-08-07T08:17:57.606Z,52.12
2022-08-07T08:18:40.427Z,52.32
2022-08-07T08:20:17.627Z,51.51
2022-08-07T08:20:40.402Z,50.21
2022-08-07T08:21:55.389Z,50.01
2022-08-07T08:22:54.121Z,49.80
2022-08-07T08:23:40.346Z,47.50
2022-08-07T08:24:45.707Z,50.91
2022-08-07T08:25:42.395Z,51.11
2022-08-07T08:26:40.326Z,50.61
2022-08-07T08:27:39.296Z,50.29
2022-08-07T08:28:45.189Z,50.09
2022-08-07T08:29:54.215Z,49.58
2022-08-07T08:30:50.809Z,49.98
2022-08-07T08:32:17.424Z,49.48
2022-08-07T08:32:41.340Z,48.88
2022-08-07T08:33:39.207Z,50.18
2022-08-07T08:34:39.227Z,48.68
2022-08-07T08:35:47.085Z,47.58
2022-08-07T08:36:40.179Z,47.67
2022-08-07T08:38:00.275Z,48.38
2022-08-07T08:38:41.071Z,49.58
2022-08-07T08:39:58.174Z,48.88
2022-08-07T08:40:40.146Z,48.86
2022-08-07T08:41:56.769Z,48.86
2022-08-07T08:42:40.330Z,48.35
2022-08-07T08:43:42.986Z,47.96
2022-08-07T08:44:44.646Z,49.05
2022-08-07T08:45:41.493Z,48.75
2022-08-07T08:46:40.059Z,48.25
2022-08-07T08:47:51.830Z,47.83
2022-08-07T08:48:40.046Z,48.53
2022-08-07T08:49:46.245Z,47.83
2022-08-07T08:50:40.361Z,47.33
2022-08-07T08:52:00.722Z,47.93
2022-08-07T08:52:40.835Z,47.63
2022-08-07T08:53:39.941Z,48.13
2022-08-07T08:54:38.938Z,48.23
2022-08-07T08:55:55.606Z,47.63
2022-08-07T08:56:39.909Z,47.41
2022-08-07T08:57:39.889Z,47.00
2022-08-07T08:58:38.997Z,47.20
2022-08-07T08:59:41.963Z,48.21
2022-08-07T09:00:42.674Z,47.08
2022-08-07T09:01:46.555Z,47.28
2022-08-07T09:02:40.449Z,46.98
2022-08-07T09:03:47.549Z,47.88
2022-08-07T09:04:39.830Z,46.68
2022-08-07T09:05:38.780Z,46.68
2022-08-07T09:06:40.324Z,47.49
2022-08-07T09:07:46.255Z,47.58
2022-08-07T09:08:39.817Z,46.78
2022-08-07T09:09:38.741Z,47.38
2022-08-07T09:10:38.715Z,46.86
2022-08-07T09:11:43.695Z,45.96
2022-08-07T09:12:39.681Z,45.06
2022-08-07T09:13:38.668Z,45.96
2022-08-07T09:14:38.700Z,46.26
2022-08-07T09:16:23.995Z,44.76
2022-08-07T09:16:39.630Z,44.76
2022-08-07T09:17:59.776Z,45.96
2022-08-07T09:18:39.610Z,46.76
2022-08-07T09:19:52.575Z,46.76
2022-08-07T09:20:39.582Z,46.76
2022-08-07T09:22:09.991Z,46.36
2022-08-07T09:24:31.968Z,46.76
2022-08-07T09:24:33.305Z,46.86
2022-08-07T09:24:56.111Z,46.06
2022-08-07T09:25:39.504Z,46.74
2022-08-07T09:26:38.513Z,46.24
2022-08-07T09:28:00.331Z,46.44
2022-08-07T09:30:00.765Z,46.31
2022-08-07T09:30:05.421Z,46.92
2022-08-07T09:30:39.492Z,46.72
2022-08-07T09:31:39.004Z,44.62
2022-08-07T09:32:39.423Z,46.22
2022-08-07T09:33:52.746Z,45.31
2022-08-07T09:34:39.406Z,45.42
2022-08-07T09:36:03.282Z,45.29
2022-08-07T09:36:43.107Z,45.59
2022-08-07T09:37:48.299Z,45.50
2022-08-07T09:38:39.333Z,45.59
2022-08-07T09:39:54.475Z,45.20
2022-08-07T09:40:39.352Z,45.29
2022-08-07T09:41:58.503Z,45.00
2022-08-07T09:42:39.276Z,44.20
2022-08-07T09:43:40.564Z,44.59
2022-08-07T09:45:03.453Z,44.70
2022-08-07T09:47:27.389Z,45.29
2022-08-07T09:47:51.886Z,45.50
2022-08-07T09:48:02.446Z,44.49
2022-08-07T09:48:55.976Z,44.39
2022-08-07T09:50:02.605Z,45.00
2022-08-07T09:50:39.846Z,45.09
2022-08-07T09:52:15.851Z,44.79
2022-08-07T09:52:39.148Z,44.59
2022-08-07T09:53:40.756Z,44.20
2022-08-07T09:54:39.119Z,43.37
2022-08-07T09:56:03.151Z,44.57
2022-08-07T09:56:41.761Z,43.98
2022-08-07T09:57:38.071Z,41.77
2022-08-07T09:58:42.226Z,44.07
2022-08-07T09:59:46.179Z,44.47
2022-08-07T10:00:39.040Z,45.25
2022-08-07T10:01:51.375Z,44.55
2022-08-07T10:02:39.010Z,44.05
2022-08-07T10:04:05.084Z,42.35
2022-08-07T10:04:39.345Z,42.15
2022-08-07T10:06:00.258Z,42.95
2022-08-07T10:06:38.959Z,43.45
2022-08-07T10:07:49.539Z,43.65
2022-08-07T10:08:38.932Z,43.15
2022-08-07T10:09:42.540Z,42.15
2022-08-07T10:11:07.832Z,41.25
2022-08-07T10:12:03.308Z,42.54
2022-08-07T10:12:39.624Z,43.33
2022-08-07T10:14:00.571Z,43.03
2022-08-07T10:14:38.871Z,42.63
2022-08-07T10:15:44.364Z,42.02
2022-08-07T10:16:38.811Z,43.11
2022-08-07T10:18:01.158Z,42.81
2022-08-07T10:18:38.817Z,43.81
2022-08-07T10:19:38.674Z,42.02
2022-08-07T10:20:37.765Z,41.61
2022-08-07T10:22:12.633Z,42.91
2022-08-07T10:22:38.766Z,42.51
2022-08-07T10:24:05.440Z,42.51
2022-08-07T10:24:39.866Z,42.21
2022-08-07T10:25:42.933Z,42.59
2022-08-07T10:26:38.704Z,40.80
2022-08-07T10:27:46.414Z,42.10
2022-08-07T10:28:38.652Z,41.60
2022-08-07T10:29:43.250Z,41.50
2022-08-07T10:30:38.634Z,41.88
2022-08-07T10:31:38.950Z,41.77
2022-08-07T10:32:53.532Z,40.98
2022-08-07T10:34:05.951Z,41.77
2022-08-07T10:34:38.607Z,41.97
2022-08-07T10:35:53.508Z,41.28
2022-08-07T10:36:38.587Z,41.67
2022-08-07T10:37:48.690Z,41.67
2022-08-07T10:38:47.831Z,41.38
2022-08-07T10:39:41.951Z,40.28
2022-08-07T10:40:38.518Z,40.36
2022-08-07T10:41:47.108Z,40.68
2022-08-07T10:42:38.508Z,40.78
2022-08-07T10:43:37.457Z,42.27
2022-08-07T10:44:39.072Z,42.67
2022-08-07T10:45:45.101Z,42.75
2022-08-07T10:46:38.462Z,41.96
2022-08-07T10:47:51.432Z,40.86
2022-08-07T10:48:38.383Z,41.36
2022-08-07T10:49:49.784Z,41.46
2022-08-07T10:50:38.558Z,41.25
2022-08-07T10:51:57.480Z,41.85
2022-08-07T10:52:40.154Z,41.06
2022-08-07T10:53:44.025Z,41.16
2022-08-07T10:54:38.284Z,41.46
2022-08-07T10:55:38.543Z,41.55
2022-08-07T10:56:37.273Z,41.36
2022-08-07T10:57:37.383Z,40.36
2022-08-07T10:58:40.310Z,39.66
2022-08-07T10:59:37.606Z,39.96
2022-08-07T11:00:42.988Z,39.66
2022-08-07T11:01:51.652Z,40.06
2022-08-07T11:02:38.275Z,37.98
2022-08-07T11:03:52.776Z,38.89
2022-08-07T11:04:38.261Z,38.89
2022-08-07T11:05:50.603Z,39.78
2022-08-07T11:06:38.128Z,40.38
2022-08-07T11:07:59.045Z,40.68
2022-08-07T11:08:39.018Z,40.78
2022-08-07T11:10:07.713Z,40.56
2022-08-07T11:10:38.113Z,41.06
2022-08-07T11:11:37.720Z,41.46
2022-08-07T11:12:37.059Z,40.54
2022-08-07T11:14:41.931Z,40.34
2022-08-07T11:14:43.773Z,40.44
2022-08-07T11:15:38.032Z,40.54
2022-08-07T11:16:37.009Z,40.92
2022-08-07T11:17:43.387Z,40.22
2022-08-07T11:18:37.991Z,40.12
2022-08-07T11:19:36.984Z,40.92
2022-08-07T11:20:36.982Z,40.62
2022-08-07T11:21:40.902Z,38.13
2022-08-07T11:22:45.610Z,39.72
2022-08-07T11:23:38.846Z,40.22
2022-08-07T11:24:36.911Z,40.62
2022-08-07T11:25:47.802Z,39.80
2022-08-07T11:26:38.661Z,39.31
2022-08-07T11:28:01.795Z,36.74
2022-08-07T11:28:37.862Z,37.32
2022-08-07T11:29:42.152Z,37.41
2022-08-07T11:30:39.212Z,37.41
2022-08-07T11:31:36.866Z,38.41
2022-08-07T11:32:36.814Z,39.21
2022-08-07T11:33:54.137Z,37.62
2022-08-07T11:34:37.785Z,38.01
2022-08-07T11:35:36.775Z,38.51
2022-08-07T11:36:37.754Z,39.50
2022-08-07T11:37:38.341Z,38.91
2022-08-07T11:38:36.735Z,39.09
2022-08-07T11:39:58.889Z,39.29
2022-08-07T11:40:37.715Z,38.59
2022-08-07T11:42:00.147Z,38.69
2022-08-07T11:42:37.667Z,38.20
2022-08-07T11:43:54.205Z,37.90
2022-08-07T11:44:37.649Z,36.70
2022-08-07T11:45:36.648Z,37.18
2022-08-07T11:46:38.021Z,36.98
2022-08-07T11:47:38.890Z,37.28
2022-08-07T11:48:37.667Z,35.89
2022-08-07T11:50:11.428Z,36.98
2022-08-07T11:50:44.248Z,37.98
2022-08-07T11:51:41.331Z,38.07
2022-08-07T11:52:37.792Z,37.68
2022-08-07T11:53:36.537Z,38.07
2022-08-07T11:54:36.509Z,36.68
2022-08-07T11:56:25.715Z,36.58
2022-08-07T11:56:37.488Z,35.39
2022-08-07T11:58:00.372Z,34.69
2022-08-07T11:58:38.279Z,35.79
2022-08-07T12:00:11.549Z,36.29
2022-08-07T12:00:37.449Z,36.88
2022-08-07T12:02:00.493Z,37.38
2022-08-07T12:02:37.491Z,36.47
2022-08-07T12:03:41.538Z,35.79
2022-08-07T12:04:37.379Z,35.38
2022-08-07T12:05:47.189Z,35.77
2022-08-07T12:06:40.258Z,35.77
2022-08-07T12:07:40.127Z,35.69
2022-08-07T12:08:36.320Z,35.57
2022-08-07T12:09:36.307Z,37.36
2022-08-07T12:10:36.309Z,36.17
2022-08-07T12:11:43.516Z,36.17
2022-08-07T12:12:37.269Z,35.67
2022-08-07T12:13:37.904Z,36.35
2022-08-07T12:14:37.239Z,35.16
2022-08-07T12:16:05.379Z,35.46
2022-08-07T12:16:37.210Z,34.46
2022-08-07T12:17:36.505Z,35.26
2022-08-07T12:18:36.174Z,36.15
2022-08-07T12:19:56.832Z,35.34
2022-08-07T12:20:37.171Z,36.13
2022-08-07T12:22:36.626Z,36.83
2022-08-07T12:22:56.521Z,36.32
2022-08-07T12:24:07.465Z,34.55
2022-08-07T12:24:40.330Z,35.92
2022-08-07T12:26:22.450Z,34.73
2022-08-07T12:26:46.188Z,34.43
2022-08-07T12:28:08.506Z,33.64
2022-08-07T12:28:37.042Z,33.64
2022-08-07T12:29:37.729Z,35.03
2022-08-07T12:30:36.043Z,35.32
2022-08-07T12:32:01.315Z,35.82
2022-08-07T12:32:36.994Z,34.63
2022-08-07T12:34:01.133Z,35.52
2022-08-07T12:34:36.964Z,34.91
2022-08-07T12:35:36.459Z,35.21
2022-08-07T12:36:35.951Z,34.81
2022-08-07T12:38:10.820Z,34.41
2022-08-07T12:38:47.268Z,33.82
2022-08-07T12:39:42.497Z,34.52
2022-08-07T12:40:47.348Z,34.23
2022-08-07T12:41:49.269Z,35.32
2022-08-07T12:42:36.865Z,35.50
2022-08-07T12:44:01.505Z,35.21
2022-08-07T12:44:36.825Z,35.80
2022-08-07T12:45:35.832Z,35.11
2022-08-07T12:46:35.840Z,34.99
2022-08-07T12:47:37.733Z,34.69
2022-08-07T12:48:41.438Z,34.59
2022-08-07T12:49:51.037Z,34.10
2022-08-07T12:50:40.061Z,35.19
2022-08-07T12:51:51.241Z,34.50
2022-08-07T12:52:36.727Z,34.59
2022-08-07T12:54:02.832Z,34.30